KLMO

Vance Brand Airport

Longmont, Colorado, USA
METAR KLMO 191215Z AUTO 23003KT 10SM BKN100 11/10 A3020 RMK AO2 T01100097
Observed Flight Rules
Aug-19 @ 12:15 UTC (11 hours ago) Visual Flight Rules
Wind Visibility Clouds
230° at 3 knots 10 miles
  • Broken at 10,000' AGL
Temperatures Readings
Current 11°C / 52°F
Dewpoint 10°C / 50°F
Humidity 94%
Altimeter 30.2" Hg
Pressure 1023 hPa
Elevation 1541
METAR KLMO 191215Z AUTO 23003KT 10SM BKN100 11/10 A3020 RMK AO2 T01100097
Observed Flight Rules
Aug-19 @ 12:15 UTC
(11 hours ago)
VFR
Wind Visibility
230° at 3 knots 10 miles
Clouds
  • Broken at 10,000' AGL
Temperature Dewpoint
11°C / 52°F 10°C / 50°F
Humidity Altimeter Pressure
94% 30.2" Hg 1023 hPa